Ferguson, Missouri
Current Conditions -  °F | °C
As of 11:51 PM on Sunday 25 Jan 2015 (Local Time) from KSTL Reporting Station
Overcast Overcast  
Wind Chill: 21°   Ceiling: 1900
Heat Index: 31°   Visibility: 10mi
Dew Point: 23°   Wind: 14mph
Humidity: 72%   Direction: 350°N
Pressure: 30.02"   Gusts: NA
Location:  38.75°N, 90.3°W
Report Text: KSTL 260551Z 35012KT 10SM BKN019 OVC035 M01/M05 A3002 RMK AO2 SLP173 60000 T10061050 10028 21006 401111006 51015
Loading
Personal Weather Stations






























Interactive Weather Map New forecast layout! Learn more

10-Day Weather Forecast

Advertisements
Track Severe Weather on mobile